Time;durP1;ratioP1;P1;durP2;ratioP2;P2;SDS_P1;SDS_P2;PMS_P1;PMS_P2;Temp;Humidity;BMP_temperature;BMP_pressure;BME280_temperature;BME280_humidity;BME280_pressure;Samples;Min_cycle;Max_cycle;Signal;HPM_P1;HPM_P2
2021/05/31 00:00:56;;;;;;;11.93;7.70;;;15.00;52.00;;;;;;2296443;55;21014;-72
2021/05/31 00:03:22;;;;;;;9.52;6.40;;;14.90;52.00;;;;;;2299155;55;21049;-74
2021/05/31 00:05:48;;;;;;;10.60;5.70;;;14.90;52.00;;;;;;2290585;55;20987;-74
2021/05/31 00:08:15;;;;;;;7.85;3.90;;;14.90;52.10;;;;;;2295143;55;21077;-72
2021/05/31 00:10:42;;;;;;;4.87;2.72;;;14.90;52.10;;;;;;2507416;54;21055;-72
2021/05/31 00:13:16;;;;;;;3.58;1.87;;;14.80;52.00;;;;;;2298450;55;21028;-75
2021/05/31 00:15:44;;;;;;;3.12;1.52;;;14.80;51.90;;;;;;2294336;55;20981;-75
2021/05/31 00:18:10;;;;;;;3.53;1.45;;;14.80;52.20;;;;;;2293216;55;20957;-75
2021/05/31 00:20:38;;;;;;;2.55;1.23;;;14.70;52.20;;;;;;2511660;54;20986;-72
2021/05/31 00:23:05;;;;;;;3.12;1.42;;;14.70;52.20;;;;;;2283736;55;20991;-78
2021/05/31 00:25:32;;;;;;;2.55;1.23;;;14.70;52.30;;;;;;2293973;55;20966;-72
2021/05/31 00:27:59;;;;;;;2.80;1.35;;;14.70;52.40;;;;;;2291654;55;20976;-71
2021/05/31 00:30:25;;;;;;;2.12;0.93;;;14.70;52.40;;;;;;2508102;53;21876;-72
2021/05/31 00:32:52;;;;;;;2.00;1.00;;;14.60;52.40;;;;;;2292799;55;21774;-71
2021/05/31 00:35:19;;;;;;;3.00;1.33;;;14.60;52.40;;;;;;2489842;54;21024;-70
2021/05/31 00:37:45;;;;;;;2.50;1.00;;;14.60;52.40;;;;;;2275828;55;21003;-72
2021/05/31 00:40:12;;;;;;;2.78;1.27;;;14.50;52.40;;;;;;2293687;55;20978;-72
2021/05/31 00:42:39;;;;;;;2.42;1.20;;;14.50;52.50;;;;;;2296545;55;21053;-72
2021/05/31 00:45:10;;;;;;;3.40;1.58;;;14.50;52.50;;;;;;2282257;55;21057;-72
2021/05/31 00:47:39;;;;;;;3.03;1.30;;;14.40;52.50;;;;;;2294272;55;21021;-72
2021/05/31 00:50:06;;;;;;;2.37;0.90;;;14.40;52.50;;;;;;2287880;55;21485;-72
2021/05/31 00:52:33;;;;;;;4.18;1.30;;;14.30;52.50;;;;;;2524099;53;21045;-72
2021/05/31 00:55:00;;;;;;;1.92;0.93;;;14.30;52.60;;;;;;2300379;55;21025;-72
2021/05/31 00:57:26;;;;;;;2.35;1.10;;;14.20;52.60;;;;;;2294218;55;21143;-71
2021/05/31 00:59:53;;;;;;;2.58;1.05;;;14.20;52.60;;;;;;2517467;54;20981;-72
2021/05/31 01:02:19;;;;;;;2.20;1.02;;;14.10;52.60;;;;;;2283014;55;21033;-72
2021/05/31 01:04:45;;;;;;;2.53;1.15;;;14.10;52.70;;;;;;2287822;55;20984;-72
2021/05/31 01:07:39;;;;;;;2.37;1.10;;;14.10;52.70;;;;;;2288553;55;21074;-72
2021/05/31 01:10:51;;;;;;;2.50;1.15;;;14.10;52.50;;;;;;2298023;54;20985;-72
2021/05/31 01:13:22;;;;;;;2.77;1.20;;;14.00;52.50;;;;;;2296438;54;20957;-72
2021/05/31 01:15:55;;;;;;;2.47;1.00;;;14.00;52.90;;;;;;2296720;55;20977;-72
2021/05/31 01:18:28;;;;;;;2.35;1.10;;;14.00;52.80;;;;;;2320387;55;20961;-72
2021/05/31 01:22:00;;;;;;;3.08;1.10;;;13.90;52.80;;;;;;2323486;54;21481;-72
2021/05/31 01:25:08;;;;;;;2.85;1.00;;;13.90;52.60;;;;;;2300041;55;21101;-72
2021/05/31 01:31:06;;;;;;;2.83;1.10;;;13.90;52.60;;;;;;2292875;55;21031;-72
2021/05/31 01:33:33;;;;;;;1.62;0.80;;;13.80;52.30;;;;;;2531670;53;21925;-72
2021/05/31 01:35:59;;;;;;;2.97;1.35;;;13.70;53.40;;;;;;2296723;55;21033;-72
2021/05/31 01:38:27;;;;;;;2.87;1.40;;;13.60;52.80;;;;;;2290527;55;20997;-72
2021/05/31 01:40:54;;;;;;;2.67;1.35;;;13.60;53.00;;;;;;2291329;55;20989;-71
2021/05/31 01:43:22;;;;;;;4.43;2.30;;;13.50;53.00;;;;;;2291041;55;21037;-72
2021/05/31 01:45:48;;;;;;;5.53;2.62;;;13.50;53.10;;;;;;2295968;55;21026;-72
2021/05/31 01:48:17;;;;;;;4.28;2.40;;;13.40;53.20;;;;;;2300050;55;20985;-72
2021/05/31 01:50:43;;;;;;;6.30;2.55;;;13.40;53.30;;;;;;2290666;55;20997;-72
2021/05/31 01:53:10;;;;;;;6.07;3.53;;;13.40;53.40;;;;;;2296256;55;21174;-72
2021/05/31 01:55:36;;;;;;;6.37;3.72;;;13.30;53.30;;;;;;2521596;54;20981;-71
2021/05/31 01:58:02;;;;;;;7.62;4.60;;;13.30;53.30;;;;;;2294711;55;21009;-72
2021/05/31 02:00:33;;;;;;;7.07;3.80;;;13.20;53.30;;;;;;2288270;55;21922;-72
2021/05/31 02:03:01;;;;;;;7.43;3.85;;;13.20;53.40;;;;;;2291398;55;21038;-72
2021/05/31 02:05:27;;;;;;;6.05;3.08;;;13.20;53.40;;;;;;2296807;55;21271;-71
2021/05/31 02:07:55;;;;;;;5.25;2.50;;;13.10;53.40;;;;;;2295417;55;21101;-72
2021/05/31 02:10:21;;;;;;;4.25;2.28;;;13.10;54.00;;;;;;2292328;55;21900;-71
2021/05/31 02:12:57;;;;;;;4.20;1.83;;;13.00;53.40;;;;;;2298348;55;20942;-72
2021/05/31 02:16:01;;;;;;;3.97;1.95;;;13.00;53.40;;;;;;2278057;55;21883;-71
2021/05/31 02:18:40;;;;;;;3.28;1.58;;;12.90;53.20;;;;;;2296145;55;21117;-72
2021/05/31 02:21:08;;;;;;;3.83;1.50;;;12.90;53.40;;;;;;2292664;55;21006;-72
2021/05/31 02:23:36;;;;;;;3.85;1.65;;;12.90;53.60;;;;;;2288242;55;21466;-71
2021/05/31 02:26:08;;;;;;;4.53;1.60;;;12.80;53.60;;;;;;2287279;55;21011;-72
2021/05/31 02:28:35;;;;;;;3.08;1.30;;;12.70;53.70;;;;;;2287903;55;20922;-72
2021/05/31 02:31:07;;;;;;;3.08;1.40;;;12.70;53.80;;;;;;2295055;55;21101;-72
2021/05/31 02:33:33;;;;;;;2.65;1.27;;;12.70;53.90;;;;;;2440758;54;20984;-71
2021/05/31 02:36:02;;;;;;;5.18;1.45;;;12.60;53.90;;;;;;2298296;55;21846;-72
2021/05/31 02:38:28;;;;;;;3.03;1.25;;;12.60;54.00;;;;;;2291502;55;21052;-72
2021/05/31 02:40:55;;;;;;;2.50;1.20;;;12.50;54.00;;;;;;2291521;55;20974;-72
2021/05/31 02:43:23;;;;;;;4.43;1.92;;;12.50;54.00;;;;;;2299302;55;20970;-71
2021/05/31 02:45:50;;;;;;;4.30;1.95;;;12.40;54.00;;;;;;2383299;54;21081;-71
2021/05/31 02:48:16;;;;;;;3.53;1.80;;;12.40;54.10;;;;;;2292738;55;20958;-72
2021/05/31 02:50:42;;;;;;;3.20;1.75;;;12.30;54.20;;;;;;2289010;55;21021;-72
2021/05/31 02:53:09;;;;;;;3.62;1.92;;;12.30;54.30;;;;;;2291682;55;21651;-72
2021/05/31 02:55:37;;;;;;;3.58;1.62;;;12.30;54.40;;;;;;2507111;54;20998;-72
2021/05/31 02:58:05;;;;;;;4.47;2.35;;;12.20;54.40;;;;;;2312465;54;21017;-71
2021/05/31 03:00:32;;;;;;;3.95;2.20;;;12.20;54.50;;;;;;2285171;55;21089;-72
2021/05/31 03:02:58;;;;;;;4.53;2.50;;;12.20;54.50;;;;;;2522435;54;20992;-72
2021/05/31 03:05:27;;;;;;;5.82;2.92;;;12.20;54.50;;;;;;2528835;53;20953;-72
2021/05/31 03:07:54;;;;;;;4.95;2.35;;;12.10;54.50;;;;;;2397542;53;21018;-71
2021/05/31 03:10:21;;;;;;;3.58;2.05;;;12.10;54.50;;;;;;2303053;55;21048;-71
2021/05/31 03:12:47;;;;;;;4.03;2.00;;;12.10;54.60;;;;;;2390976;54;20964;-72
2021/05/31 03:15:17;;;;;;;4.62;2.20;;;12.10;54.60;;;;;;2518073;53;21512;-72
2021/05/31 03:17:44;;;;;;;3.20;1.60;;;12.00;54.60;;;;;;2302121;55;20969;-72
2021/05/31 03:20:11;;;;;;;3.55;1.80;;;12.00;54.80;;;;;;2295886;55;21477;-71
2021/05/31 03:22:37;;;;;;;3.37;1.58;;;12.00;54.80;;;;;;2293687;55;21072;-71
2021/05/31 03:25:04;;;;;;;3.05;1.30;;;12.00;54.80;;;;;;2274412;55;21070;-71
2021/05/31 03:27:31;;;;;;;3.62;1.40;;;12.00;54.90;;;;;;2523399;53;20982;-72
2021/05/31 03:29:57;;;;;;;2.72;1.40;;;12.00;54.90;;;;;;2298105;55;21045;-71
2021/05/31 03:32:24;;;;;;;2.90;1.50;;;12.00;54.90;;;;;;2391539;54;21045;-72
2021/05/31 03:34:50;;;;;;;2.90;1.40;;;12.00;54.90;;;;;;2297665;55;20944;-72
2021/05/31 03:37:17;;;;;;;2.70;1.40;;;11.90;54.80;;;;;;2295744;55;21025;-71
2021/05/31 03:39:45;;;;;;;2.67;1.35;;;11.90;54.80;;;;;;2293063;55;21709;-71
2021/05/31 03:42:11;;;;;;;3.67;1.60;;;11.90;54.90;;;;;;2297539;55;20942;-71
2021/05/31 03:44:37;;;;;;;4.07;1.67;;;11.90;55.00;;;;;;2278636;55;21049;-71
2021/05/31 03:47:04;;;;;;;3.45;1.65;;;11.90;55.10;;;;;;2294120;55;21056;-71
2021/05/31 03:49:30;;;;;;;3.03;1.40;;;11.80;55.10;;;;;;2290737;55;20956;-71
2021/05/31 03:51:57;;;;;;;4.05;1.70;;;11.80;55.10;;;;;;2285253;54;20962;-71
2021/05/31 03:54:26;;;;;;;3.15;1.50;;;11.80;55.10;;;;;;2295833;55;21053;-71
2021/05/31 03:56:55;;;;;;;4.20;1.90;;;11.80;55.20;;;;;;2323527;54;20953;-72
2021/05/31 03:59:22;;;;;;;3.65;1.52;;;11.80;55.20;;;;;;2385803;54;21856;-72
2021/05/31 04:01:50;;;;;;;3.80;1.50;;;11.70;55.20;;;;;;2298027;55;21861;-72
2021/05/31 04:04:19;;;;;;;3.40;1.77;;;11.70;55.30;;;;;;2299012;55;20934;-71
2021/05/31 04:12:19;;;;;;;3.47;1.48;;;11.70;55.40;;;;;;2519752;54;21030;-71
2021/05/31 04:14:46;;;;;;;3.37;1.35;;;11.60;55.40;;;;;;2503776;54;20971;-71
2021/05/31 04:17:14;;;;;;;3.15;1.30;;;11.60;55.50;;;;;;2524792;54;20998;-72
2021/05/31 04:19:41;;;;;;;3.17;1.50;;;11.60;55.60;;;;;;2295506;55;20953;-71
2021/05/31 04:22:07;;;;;;;2.65;1.20;;;11.60;55.60;;;;;;2292173;55;20960;-72
2021/05/31 04:24:33;;;;;;;3.97;1.42;;;11.60;55.70;;;;;;2292071;55;21211;-72
2021/05/31 04:27:03;;;;;;;3.92;1.40;;;11.60;55.80;;;;;;2517777;54;21759;-71
2021/05/31 04:29:30;;;;;;;3.03;1.30;;;11.50;55.70;;;;;;2364920;54;20973;-72
2021/05/31 04:31:57;;;;;;;4.20;1.73;;;11.60;55.90;;;;;;2282730;55;21117;-71
2021/05/31 04:34:25;;;;;;;4.07;1.87;;;11.60;56.00;;;;;;2522725;54;20966;-72
2021/05/31 04:36:52;;;;;;;2.87;1.65;;;11.60;56.00;;;;;;2524238;53;21021;-71
2021/05/31 04:39:18;;;;;;;3.37;1.77;;;11.60;56.10;;;;;;2294800;55;21316;-71
2021/05/31 04:41:45;;;;;;;3.12;1.70;;;11.60;56.20;;;;;;2290781;55;20946;-71
2021/05/31 04:44:11;;;;;;;4.28;1.90;;;11.70;56.20;;;;;;2294617;55;20942;-72
2021/05/31 04:46:37;;;;;;;3.92;2.00;;;11.70;56.30;;;;;;2514414;54;20938;-72
2021/05/31 04:49:04;;;;;;;3.40;1.70;;;11.70;56.30;;;;;;2287630;55;20990;-71
2021/05/31 04:51:31;;;;;;;3.05;1.50;;;11.80;56.40;;;;;;2294949;55;21013;-72
2021/05/31 04:53:58;;;;;;;3.40;1.70;;;11.80;56.50;;;;;;2275450;55;21099;-72
2021/05/31 04:56:25;;;;;;;2.97;1.40;;;11.80;56.50;;;;;;2294595;55;21010;-71
2021/05/31 04:58:52;;;;;;;4.97;1.92;;;11.90;56.60;;;;;;2297627;55;20965;-71
2021/05/31 05:01:19;;;;;;;4.22;1.60;;;11.90;56.70;;;;;;2269661;55;21037;-72
2021/05/31 05:03:45;;;;;;;3.47;1.50;;;11.90;56.80;;;;;;2311014;54;20993;-72
2021/05/31 05:06:13;;;;;;;4.62;1.60;;;12.00;56.90;;;;;;2290924;55;21037;-71
2021/05/31 05:08:40;;;;;;;3.87;1.52;;;12.00;56.90;;;;;;2278053;55;21093;-72
2021/05/31 05:11:07;;;;;;;3.40;1.70;;;12.10;57.00;;;;;;2523759;54;21604;-72
2021/05/31 05:13:33;;;;;;;2.83;1.60;;;12.10;57.10;;;;;;2294302;55;20958;-72
2021/05/31 05:16:00;;;;;;;3.50;1.60;;;12.20;57.20;;;;;;2302302;55;21583;-71
2021/05/31 05:18:27;;;;;;;3.42;1.52;;;12.20;57.20;;;;;;2293808;55;21069;-71
2021/05/31 05:20:59;;;;;;;4.22;1.35;;;12.30;57.30;;;;;;2512634;54;21029;-72
2021/05/31 05:23:25;;;;;;;2.97;1.58;;;12.40;57.30;;;;;;2279231;55;21005;-72
2021/05/31 05:25:54;;;;;;;3.95;1.42;;;12.40;57.30;;;;;;2297682;55;21102;-72
2021/05/31 05:28:21;;;;;;;2.65;1.37;;;12.50;57.40;;;;;;2294717;55;20981;-72
2021/05/31 05:30:50;;;;;;;3.00;1.55;;;12.60;57.40;;;;;;2517393;54;21005;-72
2021/05/31 05:33:17;;;;;;;3.87;1.52;;;12.60;58.00;;;;;;2290744;55;21065;-72
2021/05/31 05:35:59;;;;;;;3.47;1.77;;;12.70;57.50;;;;;;2296987;55;20937;-72
2021/05/31 05:38:38;;;;;;;3.28;1.60;;;12.80;57.60;;;;;;2288229;55;20946;-71
2021/05/31 05:41:35;;;;;;;3.60;1.52;;;12.90;57.60;;;;;;2297711;55;21882;-72
2021/05/31 05:44:33;;;;;;;3.12;1.50;;;13.00;57.70;;;;;;2362049;54;21430;-72
2021/05/31 05:59:26;;;;;;;2.80;1.15;;;13.20;57.80;;;;;;2304740;55;21043;-72
2021/05/31 06:01:53;;;;;;;2.67;1.20;;;13.60;57.90;;;;;;2443235;53;20944;-72
2021/05/31 06:04:20;;;;;;;4.25;1.40;;;13.60;58.00;;;;;;2300352;55;21013;-72
2021/05/31 06:06:46;;;;;;;3.25;1.60;;;13.70;58.10;;;;;;2516162;54;21094;-72
2021/05/31 06:09:14;;;;;;;4.00;1.55;;;13.80;58.20;;;;;;2281904;55;20960;-72
2021/05/31 06:11:44;;;;;;;3.47;1.80;;;13.90;58.30;;;;;;2484928;53;21796;-72
2021/05/31 06:14:10;;;;;;;3.58;1.75;;;13.90;58.40;;;;;;2298968;55;21001;-72
2021/05/31 06:16:38;;;;;;;3.40;1.77;;;14.00;58.40;;;;;;2301986;55;21037;-72
2021/05/31 06:19:04;;;;;;;3.80;2.05;;;14.10;58.50;;;;;;2301890;55;20936;-72
2021/05/31 06:21:31;;;;;;;3.33;1.75;;;14.20;58.60;;;;;;2323638;54;21033;-72
2021/05/31 06:23:58;;;;;;;4.90;1.95;;;14.30;58.70;;;;;;2295531;55;20930;-72
2021/05/31 06:26:24;;;;;;;3.95;2.20;;;14.40;58.80;;;;;;2398984;53;21041;-74
2021/05/31 06:28:50;;;;;;;3.70;2.00;;;14.50;58.70;;;;;;2539077;53;21024;-72
2021/05/31 06:31:17;;;;;;;3.72;2.05;;;14.70;58.80;;;;;;2539147;53;20985;-72
2021/05/31 06:33:43;;;;;;;4.35;1.95;;;14.70;58.70;;;;;;2539195;53;21017;-73
2021/05/31 06:36:11;;;;;;;2.90;1.60;;;14.90;58.80;;;;;;2331338;53;21032;-74
2021/05/31 06:38:38;;;;;;;3.15;1.77;;;15.00;58.80;;;;;;2539217;53;20961;-72
2021/05/31 06:41:05;;;;;;;4.37;2.20;;;15.10;58.70;;;;;;2531435;53;20993;-72
2021/05/31 06:43:31;;;;;;;4.72;1.50;;;15.20;59.20;;;;;;2300561;55;20956;-76
2021/05/31 06:45:59;;;;;;;4.20;2.08;;;15.30;58.60;;;;;;2302111;55;20984;-76
2021/05/31 06:48:26;;;;;;;3.83;1.67;;;15.40;58.70;;;;;;2503788;54;21044;-72
2021/05/31 06:50:53;;;;;;;3.28;1.75;;;15.50;58.70;;;;;;2354630;54;21033;-72
2021/05/31 06:53:20;;;;;;;4.25;1.92;;;15.70;58.70;;;;;;2296897;54;20960;-73
2021/05/31 06:55:46;;;;;;;3.42;1.95;;;15.80;58.70;;;;;;2405192;53;21388;-71
2021/05/31 06:58:13;;;;;;;3.20;1.80;;;15.90;58.70;;;;;;2301886;55;20943;-72
2021/05/31 07:00:40;;;;;;;3.28;1.98;;;16.00;58.80;;;;;;2302256;55;20949;-72
2021/05/31 07:03:08;;;;;;;4.20;2.10;;;16.20;59.00;;;;;;2387138;54;21659;-72
2021/05/31 07:05:35;;;;;;;7.25;2.03;;;16.40;59.30;;;;;;2304551;55;21013;-73
2021/05/31 07:08:01;;;;;;;3.65;1.98;;;16.60;59.50;;;;;;2293197;55;21863;-76
2021/05/31 07:10:29;;;;;;;5.05;2.30;;;16.80;59.30;;;;;;2300881;55;20996;-72
2021/05/31 07:12:55;;;;;;;3.67;2.08;;;16.90;59.00;;;;;;2296870;54;21051;-73
2021/05/31 07:15:21;;;;;;;4.25;2.40;;;17.10;58.90;;;;;;2300861;54;20951;-75
2021/05/31 07:17:48;;;;;;;4.22;2.20;;;17.20;58.90;;;;;;2527924;53;21626;-73
2021/05/31 07:20:15;;;;;;;4.10;2.00;;;17.30;58.80;;;;;;2284678;55;20941;-73
2021/05/31 07:22:43;;;;;;;3.50;2.00;;;17.50;58.80;;;;;;2297054;54;21032;-72
2021/05/31 07:25:10;;;;;;;5.32;1.90;;;17.60;58.90;;;;;;2291075;55;21005;-72
2021/05/31 07:27:36;;;;;;;3.85;1.90;;;17.70;59.20;;;;;;2509192;53;20961;-73
2021/05/31 07:30:04;;;;;;;4.10;1.90;;;17.90;59.50;;;;;;2420061;54;20991;-75
2021/05/31 07:32:30;;;;;;;4.87;1.98;;;18.10;59.60;;;;;;2292521;55;20942;-73
2021/05/31 07:34:58;;;;;;;4.90;2.00;;;18.30;59.50;;;;;;2507243;54;21039;-73
2021/05/31 07:37:25;;;;;;;3.15;1.70;;;18.40;58.90;;;;;;2523537;54;20990;-72
2021/05/31 07:39:52;;;;;;;2.80;1.23;;;18.60;58.50;;;;;;2514177;54;20993;-73
2021/05/31 07:42:19;;;;;;;4.87;1.65;;;18.70;58.40;;;;;;2286715;55;20922;-74
2021/05/31 07:44:46;;;;;;;4.47;1.62;;;18.80;58.20;;;;;;2518319;54;21046;-73
2021/05/31 07:47:12;;;;;;;5.87;1.90;;;18.90;58.00;;;;;;2433025;54;20957;-73
2021/05/31 07:49:39;;;;;;;3.42;1.65;;;19.00;57.90;;;;;;2295298;55;20958;-74
2021/05/31 07:52:09;;;;;;;3.03;1.40;;;19.10;57.70;;;;;;2294534;55;21121;-75
2021/05/31 07:54:36;;;;;;;3.95;1.77;;;19.10;57.60;;;;;;2282128;55;21037;-75
2021/05/31 07:57:03;;;;;;;3.17;1.55;;;19.30;57.40;;;;;;2329364;54;20995;-78
2021/05/31 07:59:30;;;;;;;3.80;2.20;;;19.30;57.20;;;;;;2514083;54;21103;-74
2021/05/31 08:01:56;;;;;;;2.75;1.40;;;19.40;57.10;;;;;;2289540;55;21549;-73
2021/05/31 08:04:22;;;;;;;3.62;1.50;;;19.50;57.10;;;;;;2293247;55;21006;-73
2021/05/31 08:06:48;;;;;;;3.17;1.55;;;19.50;57.00;;;;;;2293414;55;21804;-74
2021/05/31 08:09:15;;;;;;;3.78;1.73;;;19.60;56.80;;;;;;2293875;55;20937;-75
2021/05/31 08:11:42;;;;;;;3.80;1.80;;;19.70;56.60;;;;;;2296233;55;21037;-70
2021/05/31 08:14:14;;;;;;;5.35;1.50;;;19.80;56.60;;;;;;2296457;55;21022;-72
2021/05/31 08:16:40;;;;;;;4.55;2.15;;;19.90;56.50;;;;;;2295382;55;21005;-70
2021/05/31 08:19:06;;;;;;;3.55;1.40;;;20.00;56.80;;;;;;2293966;55;21006;-70
2021/05/31 08:21:33;;;;;;;3.95;1.70;;;20.10;56.90;;;;;;2294042;55;20958;-71
2021/05/31 08:24:02;;;;;;;6.57;1.70;;;20.20;56.80;;;;;;2299014;55;21029;-69
2021/05/31 08:26:28;;;;;;;3.40;1.60;;;20.30;56.60;;;;;;2296547;55;20961;-71
2021/05/31 08:28:57;;;;;;;3.50;1.30;;;20.40;56.40;;;;;;2295696;55;21001;-69
2021/05/31 08:31:23;;;;;;;5.60;1.60;;;20.50;56.20;;;;;;2295168;55;20943;-67
2021/05/31 08:33:52;;;;;;;5.80;1.45;;;20.70;56.40;;;;;;2297712;55;21002;-70
2021/05/31 08:36:20;;;;;;;4.15;1.37;;;20.80;56.10;;;;;;2523916;54;21825;-72
2021/05/31 08:38:47;;;;;;;6.57;1.95;;;20.90;55.90;;;;;;2301227;55;21018;-68
2021/05/31 08:41:13;;;;;;;6.78;1.60;;;21.00;56.50;;;;;;2292324;55;21387;-70
2021/05/31 08:43:40;;;;;;;3.15;1.42;;;21.10;55.90;;;;;;2511345;53;21113;-71
2021/05/31 08:46:06;;;;;;;5.25;1.27;;;21.20;55.80;;;;;;2292130;55;21456;-69
2021/05/31 08:48:32;;;;;;;4.05;1.30;;;21.30;55.70;;;;;;2294318;55;21052;-68
2021/05/31 08:50:59;;;;;;;3.83;1.20;;;21.40;55.50;;;;;;2519066;54;20958;-69
2021/05/31 08:53:25;;;;;;;3.55;1.30;;;21.40;55.10;;;;;;2296027;55;20949;-69
2021/05/31 08:55:51;;;;;;;2.92;1.20;;;21.50;54.90;;;;;;2295209;55;21403;-71
2021/05/31 08:58:19;;;;;;;3.40;1.40;;;21.60;54.80;;;;;;2368215;54;21001;-70
2021/05/31 09:00:45;;;;;;;4.28;1.58;;;21.70;54.90;;;;;;2286978;55;20953;-69
2021/05/31 09:03:12;;;;;;;3.35;1.55;;;21.80;54.60;;;;;;2508213;54;21058;-70
2021/05/31 09:05:42;;;;;;;3.20;1.23;;;22.00;54.50;;;;;;2298958;55;21065;-70
2021/05/31 09:08:18;;;;;;;3.35;1.40;;;22.00;53.90;;;;;;2508769;54;20955;-70
2021/05/31 09:10:52;;;;;;;1.98;0.95;;;22.10;52.90;;;;;;2303387;55;21001;-69
2021/05/31 09:13:40;;;;;;;2.50;1.08;;;22.20;53.10;;;;;;2296729;54;21017;-70
2021/05/31 09:16:13;;;;;;;3.80;1.33;;;22.20;52.30;;;;;;2293298;54;20986;-72
2021/05/31 09:18:47;;;;;;;2.58;1.10;;;22.30;52.50;;;;;;2274839;55;20941;-69
2021/05/31 09:21:27;;;;;;;2.65;1.10;;;22.30;52.20;;;;;;2295415;55;21118;-70
2021/05/31 09:24:01;;;;;;;2.37;1.00;;;22.40;51.50;;;;;;2516468;54;20972;-72
2021/05/31 09:26:30;;;;;;;2.53;1.20;;;22.30;51.70;;;;;;2294547;55;21057;-70
2021/05/31 09:29:03;;;;;;;5.28;1.10;;;22.40;52.40;;;;;;2292262;55;21140;-70
2021/05/31 09:31:30;;;;;;;2.37;0.95;;;22.40;51.30;;;;;;2289536;55;21025;-72
2021/05/31 09:34:01;;;;;;;3.37;1.00;;;22.50;52.00;;;;;;2284517;55;20993;-75
2021/05/31 09:36:30;;;;;;;2.40;1.20;;;22.50;51.30;;;;;;2290987;55;21050;-70
2021/05/31 09:38:56;;;;;;;3.37;1.35;;;22.60;51.50;;;;;;2294562;55;21030;-69
2021/05/31 09:41:32;;;;;;;3.30;1.27;;;22.60;51.50;;;;;;2291460;55;21053;-70
2021/05/31 09:44:02;;;;;;;4.37;1.15;;;22.60;50.50;;;;;;2291342;55;21045;-70
2021/05/31 09:46:45;;;;;;;3.15;1.12;;;22.60;50.80;;;;;;2286359;55;21039;-74
2021/05/31 09:49:21;;;;;;;3.20;1.20;;;22.70;50.30;;;;;;2293172;54;21025;-72
2021/05/31 09:51:59;;;;;;;3.33;1.30;;;22.80;51.30;;;;;;2298500;55;20946;-74
2021/05/31 09:54:45;;;;;;;2.58;1.10;;;22.80;50.40;;;;;;2297909;55;20977;-70
2021/05/31 09:57:31;;;;;;;1.67;0.82;;;22.90;51.10;;;;;;2289377;55;21040;-71
2021/05/31 10:00:17;;;;;;;2.20;0.98;;;22.90;50.00;;;;;;2288646;55;20977;-72
2021/05/31 10:02:55;;;;;;;2.40;1.10;;;23.00;49.70;;;;;;2294450;55;21032;-71
2021/05/31 10:09:23;;;;;;;1.77;0.82;;;23.20;50.30;;;;;;2297971;55;21022;-71
2021/05/31 10:11:53;;;;;;;2.03;0.80;;;23.30;51.00;;;;;;2290675;55;20989;-71
2021/05/31 10:14:20;;;;;;;2.05;0.98;;;23.40;50.50;;;;;;2295127;55;20957;-72
2021/05/31 10:16:46;;;;;;;2.65;1.00;;;23.50;50.70;;;;;;2365488;54;21056;-71
2021/05/31 10:19:13;;;;;;;2.67;1.10;;;23.60;50.90;;;;;;2290735;55;21647;-74
2021/05/31 10:21:39;;;;;;;2.53;0.90;;;23.60;50.00;;;;;;2519961;54;20998;-70
2021/05/31 10:24:06;;;;;;;5.22;1.10;;;23.70;49.80;;;;;;2298560;54;21994;-70
2021/05/31 10:26:33;;;;;;;1.75;0.80;;;23.80;49.90;;;;;;2292307;55;22334;-73
2021/05/31 10:29:01;;;;;;;1.70;0.75;;;23.90;50.00;;;;;;2278761;55;21516;-71
2021/05/31 10:31:28;;;;;;;2.72;1.10;;;24.00;49.90;;;;;;2297524;55;21022;-74
2021/05/31 10:34:00;;;;;;;3.83;1.20;;;24.10;49.60;;;;;;2290465;55;21136;-72
2021/05/31 10:36:32;;;;;;;2.12;0.95;;;24.20;48.90;;;;;;2291935;55;21456;-70
2021/05/31 10:39:01;;;;;;;2.45;1.05;;;24.30;48.30;;;;;;2287234;55;21013;-71
2021/05/31 10:41:29;;;;;;;3.83;1.35;;;24.40;48.80;;;;;;2512984;54;21052;-71
2021/05/31 10:43:59;;;;;;;2.90;1.20;;;24.40;46.60;;;;;;2291251;55;20941;-71
2021/05/31 10:46:34;;;;;;;3.20;1.08;;;24.40;47.20;;;;;;2276440;55;20961;-71
2021/05/31 10:49:04;;;;;;;2.50;0.77;;;24.50;47.50;;;;;;2274941;55;21117;-71
2021/05/31 10:51:36;;;;;;;2.78;0.95;;;24.60;47.50;;;;;;2294661;55;20985;-72
2021/05/31 10:54:09;;;;;;;1.33;0.70;;;24.60;47.30;;;;;;2294464;55;21781;-72
2021/05/31 10:56:35;;;;;;;2.12;0.95;;;24.70;46.30;;;;;;2290066;55;21044;-76
2021/05/31 10:59:05;;;;;;;3.15;1.17;;;24.70;46.90;;;;;;2266525;55;20962;-70
2021/05/31 11:01:37;;;;;;;3.03;1.20;;;24.80;46.50;;;;;;2291959;55;21049;-71
2021/05/31 11:04:14;;;;;;;2.97;0.90;;;24.80;46.30;;;;;;2517089;54;21484;-71
2021/05/31 11:06:43;;;;;;;2.60;0.90;;;24.90;46.40;;;;;;2374933;53;21038;-71
2021/05/31 11:09:19;;;;;;;4.45;1.10;;;25.00;46.50;;;;;;2508516;54;20926;-70
2021/05/31 11:11:53;;;;;;;1.35;0.62;;;25.00;46.30;;;;;;2295985;55;22373;-71
2021/05/31 11:14:46;;;;;;;3.60;1.02;;;25.00;46.00;;;;;;2299186;55;21034;-73
2021/05/31 11:17:13;;;;;;;3.05;1.00;;;25.10;44.30;;;;;;2293567;55;20990;-71
2021/05/31 11:19:47;;;;;;;2.05;0.85;;;25.10;46.00;;;;;;2287004;55;21066;-70
2021/05/31 11:22:26;;;;;;;1.67;0.70;;;25.20;45.80;;;;;;2277455;55;21029;-73
2021/05/31 11:25:01;;;;;;;2.20;0.90;;;25.30;45.00;;;;;;2294744;55;20961;-75
2021/05/31 11:27:34;;;;;;;2.42;1.00;;;25.30;45.10;;;;;;2271264;55;21013;-70
2021/05/31 11:30:08;;;;;;;1.90;0.88;;;25.40;44.80;;;;;;2267929;55;21874;-72
2021/05/31 11:32:36;;;;;;;1.75;0.70;;;25.40;44.80;;;;;;2298376;55;20985;-74
2021/05/31 11:35:09;;;;;;;2.78;0.80;;;25.50;45.30;;;;;;2518536;54;20973;-72
2021/05/31 11:38:01;;;;;;;2.62;0.93;;;25.50;44.70;;;;;;2286307;55;21006;-74
2021/05/31 11:40:37;;;;;;;2.40;1.10;;;25.60;45.20;;;;;;2296936;55;21442;-72
2021/05/31 11:43:04;;;;;;;3.00;1.08;;;25.70;44.60;;;;;;2292203;55;20963;-72
2021/05/31 11:45:35;;;;;;;1.85;0.75;;;25.70;45.10;;;;;;2291606;55;21068;-74
2021/05/31 11:48:07;;;;;;;2.03;0.77;;;25.70;45.00;;;;;;2294463;55;21096;-72
2021/05/31 11:50:34;;;;;;;2.30;0.90;;;25.80;44.50;;;;;;2440838;55;21440;-71
2021/05/31 11:53:02;;;;;;;3.30;1.00;;;25.80;45.30;;;;;;2291061;55;20989;-74
2021/05/31 11:55:31;;;;;;;1.92;0.90;;;25.80;45.20;;;;;;2293648;55;20985;-73
2021/05/31 11:57:57;;;;;;;2.10;0.90;;;25.80;44.60;;;;;;2265693;55;21046;-72
2021/05/31 12:00:28;;;;;;;2.87;1.10;;;25.90;45.30;;;;;;2397078;54;21397;-71
2021/05/31 12:02:54;;;;;;;2.33;0.90;;;25.90;44.60;;;;;;2293905;55;20949;-71
2021/05/31 12:05:37;;;;;;;2.28;0.82;;;25.90;44.70;;;;;;2291021;55;21033;-74
2021/05/31 12:08:04;;;;;;;;;;;25.90;43.50;;;;;;2297699;55;20981;-72
2021/05/31 12:10:31;;;;;;;2.37;0.93;;;25.90;44.70;;;;;;2297846;55;20125;-73
2021/05/31 12:12:57;;;;;;;2.12;0.90;;;25.90;45.80;;;;;;2293611;55;21018;-73
2021/05/31 12:15:23;;;;;;;2.58;1.00;;;25.90;44.90;;;;;;2295902;55;20958;-69
2021/05/31 12:17:51;;;;;;;2.10;1.00;;;25.90;44.50;;;;;;2516797;54;20950;-74
2021/05/31 12:20:25;;;;;;;2.35;1.00;;;25.90;44.20;;;;;;2294605;55;21049;-72
2021/05/31 12:22:51;;;;;;;2.50;0.95;;;25.90;43.80;;;;;;2295555;55;21113;-71
2021/05/31 12:25:17;;;;;;;2.40;1.20;;;25.90;44.50;;;;;;2282968;55;20997;-70
2021/05/31 12:27:46;;;;;;;2.40;1.10;;;25.90;44.40;;;;;;2291212;55;21037;-69
2021/05/31 12:30:15;;;;;;;3.37;1.10;;;25.90;43.90;;;;;;2287225;55;21045;-73
2021/05/31 12:32:41;;;;;;;3.03;1.10;;;26.00;44.00;;;;;;2511634;54;20967;-72
2021/05/31 12:35:08;;;;;;;2.03;0.90;;;26.00;44.00;;;;;;2289044;55;21030;-72
2021/05/31 12:37:36;;;;;;;2.20;1.10;;;26.00;43.90;;;;;;2292635;55;20994;-72
2021/05/31 12:40:18;;;;;;;2.85;1.20;;;26.00;43.80;;;;;;2292279;55;21052;-70
2021/05/31 12:42:49;;;;;;;3.33;1.00;;;26.00;42.70;;;;;;2365392;54;21016;-68
2021/05/31 12:45:16;;;;;;;3.80;1.02;;;26.00;43.60;;;;;;2286903;55;20994;-73
2021/05/31 12:47:45;;;;;;;1.95;0.82;;;26.00;43.70;;;;;;2291624;55;21033;-69
2021/05/31 12:50:26;;;;;;;2.20;1.10;;;26.00;43.60;;;;;;2322789;54;20961;-71
2021/05/31 12:52:55;;;;;;;2.10;0.93;;;26.10;43.40;;;;;;2292638;55;20922;-71
2021/05/31 12:55:27;;;;;;;2.20;0.85;;;26.10;43.80;;;;;;2295138;55;20938;-70
2021/05/31 12:57:56;;;;;;;2.58;0.90;;;26.10;43.70;;;;;;2276381;55;21057;-72
2021/05/31 13:00:24;;;;;;;2.05;0.88;;;26.10;43.60;;;;;;2292291;55;21060;-71
2021/05/31 13:02:54;;;;;;;3.75;0.90;;;26.20;43.40;;;;;;2292920;55;20972;-74
2021/05/31 13:05:24;;;;;;;2.25;0.80;;;26.20;42.90;;;;;;2505521;54;21778;-74
2021/05/31 13:07:54;;;;;;;5.93;1.10;;;26.20;43.00;;;;;;2417148;55;21564;-71
2021/05/31 13:10:21;;;;;;;1.98;0.90;;;26.30;43.40;;;;;;2299187;55;20976;-78
2021/05/31 13:13:10;;;;;;;2.47;1.08;;;26.30;43.40;;;;;;2285449;55;21027;-71
2021/05/31 13:16:37;;;;;;;2.37;0.90;;;26.30;41.90;;;;;;2521959;54;21008;-70
2021/05/31 13:19:18;;;;;;;5.97;1.37;;;26.30;42.40;;;;;;2288078;55;21433;-74
2021/05/31 13:21:44;;;;;;;1.90;0.80;;;26.30;43.10;;;;;;2295816;55;20973;-72
2021/05/31 13:24:11;;;;;;;1.85;0.90;;;26.30;43.20;;;;;;2279914;55;21087;-72
2021/05/31 13:26:39;;;;;;;2.10;0.90;;;26.30;43.00;;;;;;2294827;55;21033;-71